sensor_id;sensor_type;location;lat;lon;timestamp;P1;durP1;ratioP1;P2;durP2;ratioP2
11396;SDS011;5754;43.726;7.416;2023-02-01T00:00:37;13.17;;;4.37;;
11396;SDS011;5754;43.726;7.416;2023-02-01T00:03:12;13.67;;;4.27;;
11396;SDS011;5754;43.726;7.416;2023-02-01T00:05:54;19.20;;;4.90;;
11396;SDS011;5754;43.726;7.416;2023-02-01T00:08:30;8.80;;;3.93;;
11396;SDS011;5754;43.726;7.416;2023-02-01T00:11:07;11.97;;;4.63;;
11396;SDS011;5754;43.726;7.416;2023-02-01T00:13:41;14.13;;;5.00;;
11396;SDS011;5754;43.726;7.416;2023-02-01T00:16:18;14.37;;;4.87;;
11396;SDS011;5754;43.726;7.416;2023-02-01T00:18:58;11.77;;;4.63;;
11396;SDS011;5754;43.726;7.416;2023-02-01T00:21:34;13.73;;;4.50;;
11396;SDS011;5754;43.726;7.416;2023-02-01T00:24:08;14.50;;;4.60;;
11396;SDS011;5754;43.726;7.416;2023-02-01T00:26:44;14.77;;;4.90;;
11396;SDS011;5754;43.726;7.416;2023-02-01T00:29:19;14.43;;;5.00;;
11396;SDS011;5754;43.726;7.416;2023-02-01T00:31:54;13.87;;;4.70;;
11396;SDS011;5754;43.726;7.416;2023-02-01T00:34:28;15.00;;;6.00;;
11396;SDS011;5754;43.726;7.416;2023-02-01T00:37:04;15.90;;;5.90;;
11396;SDS011;5754;43.726;7.416;2023-02-01T00:39:38;14.03;;;6.70;;
11396;SDS011;5754;43.726;7.416;2023-02-01T00:42:13;12.83;;;6.73;;
11396;SDS011;5754;43.726;7.416;2023-02-01T00:44:47;13.43;;;6.93;;
11396;SDS011;5754;43.726;7.416;2023-02-01T00:47:22;13.30;;;6.60;;
11396;SDS011;5754;43.726;7.416;2023-02-01T00:49:56;18.53;;;7.33;;
11396;SDS011;5754;43.726;7.416;2023-02-01T00:52:30;17.37;;;7.63;;
11396;SDS011;5754;43.726;7.416;2023-02-01T00:55:07;20.37;;;7.30;;
11396;SDS011;5754;43.726;7.416;2023-02-01T00:57:41;15.13;;;7.13;;
11396;SDS011;5754;43.726;7.416;2023-02-01T01:00:16;14.80;;;7.23;;
11396;SDS011;5754;43.726;7.416;2023-02-01T01:02:51;15.37;;;6.80;;
11396;SDS011;5754;43.726;7.416;2023-02-01T01:05:25;14.80;;;7.00;;
11396;SDS011;5754;43.726;7.416;2023-02-01T01:08:01;14.87;;;7.37;;
11396;SDS011;5754;43.726;7.416;2023-02-01T01:10:35;17.10;;;6.80;;
11396;SDS011;5754;43.726;7.416;2023-02-01T01:13:10;16.03;;;8.00;;
11396;SDS011;5754;43.726;7.416;2023-02-01T01:15:44;19.50;;;7.23;;
11396;SDS011;5754;43.726;7.416;2023-02-01T01:18:19;17.20;;;7.73;;
11396;SDS011;5754;43.726;7.416;2023-02-01T01:20:53;14.60;;;6.83;;
11396;SDS011;5754;43.726;7.416;2023-02-01T01:23:28;14.97;;;7.37;;
11396;SDS011;5754;43.726;7.416;2023-02-01T01:26:09;12.10;;;6.70;;
11396;SDS011;5754;43.726;7.416;2023-02-01T01:28:44;18.13;;;7.70;;
11396;SDS011;5754;43.726;7.416;2023-02-01T01:31:19;15.23;;;6.90;;
11396;SDS011;5754;43.726;7.416;2023-02-01T01:33:55;16.87;;;7.10;;
11396;SDS011;5754;43.726;7.416;2023-02-01T01:36:31;16.00;;;6.70;;
11396;SDS011;5754;43.726;7.416;2023-02-01T01:39:05;19.27;;;6.93;;
11396;SDS011;5754;43.726;7.416;2023-02-01T01:41:40;21.37;;;6.60;;
11396;SDS011;5754;43.726;7.416;2023-02-01T01:47:15;17.13;;;6.43;;
11396;SDS011;5754;43.726;7.416;2023-02-01T01:49:50;16.57;;;6.33;;
11396;SDS011;5754;43.726;7.416;2023-02-01T01:52:24;15.53;;;6.17;;
11396;SDS011;5754;43.726;7.416;2023-02-01T01:55:00;18.63;;;6.40;;
11396;SDS011;5754;43.726;7.416;2023-02-01T01:57:36;14.97;;;6.03;;
11396;SDS011;5754;43.726;7.416;2023-02-01T02:00:13;14.73;;;5.97;;
11396;SDS011;5754;43.726;7.416;2023-02-01T02:02:50;9.23;;;4.90;;
11396;SDS011;5754;43.726;7.416;2023-02-01T02:05:29;9.40;;;4.57;;
11396;SDS011;5754;43.726;7.416;2023-02-01T02:08:04;9.37;;;4.17;;
11396;SDS011;5754;43.726;7.416;2023-02-01T02:10:38;6.97;;;4.07;;
11396;SDS011;5754;43.726;7.416;2023-02-01T02:13:33;5.43;;;3.63;;
11396;SDS011;5754;43.726;7.416;2023-02-01T02:20:40;8.23;;;3.70;;
11396;SDS011;5754;43.726;7.416;2023-02-01T02:34:56;3.40;;;3.00;;
11396;SDS011;5754;43.726;7.416;2023-02-01T02:37:40;5.53;;;3.60;;
11396;SDS011;5754;43.726;7.416;2023-02-01T02:40:18;4.13;;;2.63;;
11396;SDS011;5754;43.726;7.416;2023-02-01T02:43:07;5.80;;;3.00;;
11396;SDS011;5754;43.726;7.416;2023-02-01T02:46:07;7.20;;;3.20;;
11396;SDS011;5754;43.726;7.416;2023-02-01T02:49:15;6.43;;;2.80;;
11396;SDS011;5754;43.726;7.416;2023-02-01T02:51:58;4.97;;;3.07;;
11396;SDS011;5754;43.726;7.416;2023-02-01T02:54:56;5.77;;;3.40;;
11396;SDS011;5754;43.726;7.416;2023-02-01T02:57:34;7.83;;;3.47;;
11396;SDS011;5754;43.726;7.416;2023-02-01T03:00:29;7.13;;;3.30;;
11396;SDS011;5754;43.726;7.416;2023-02-01T03:03:24;7.77;;;2.90;;
11396;SDS011;5754;43.726;7.416;2023-02-01T03:06:16;8.90;;;3.30;;
11396;SDS011;5754;43.726;7.416;2023-02-01T03:08:53;6.97;;;2.90;;
11396;SDS011;5754;43.726;7.416;2023-02-01T03:11:30;4.70;;;2.90;;
11396;SDS011;5754;43.726;7.416;2023-02-01T03:14:24;4.97;;;2.90;;
11396;SDS011;5754;43.726;7.416;2023-02-01T03:17:01;7.23;;;3.00;;
11396;SDS011;5754;43.726;7.416;2023-02-01T03:19:38;9.73;;;3.30;;
11396;SDS011;5754;43.726;7.416;2023-02-01T03:22:21;8.10;;;2.83;;
11396;SDS011;5754;43.726;7.416;2023-02-01T03:25:00;6.07;;;2.87;;
11396;SDS011;5754;43.726;7.416;2023-02-01T03:27:44;6.43;;;2.73;;
11396;SDS011;5754;43.726;7.416;2023-02-01T03:30:26;7.17;;;2.73;;
11396;SDS011;5754;43.726;7.416;2023-02-01T03:33:02;6.43;;;2.80;;
11396;SDS011;5754;43.726;7.416;2023-02-01T03:36:25;6.30;;;2.90;;
11396;SDS011;5754;43.726;7.416;2023-02-01T03:39:07;6.83;;;3.00;;
11396;SDS011;5754;43.726;7.416;2023-02-01T03:42:48;6.50;;;2.77;;
11396;SDS011;5754;43.726;7.416;2023-02-01T03:45:26;8.40;;;2.80;;
11396;SDS011;5754;43.726;7.416;2023-02-01T03:48:03;7.73;;;2.80;;
11396;SDS011;5754;43.726;7.416;2023-02-01T03:50:39;7.33;;;2.80;;
11396;SDS011;5754;43.726;7.416;2023-02-01T03:53:18;3.40;;;2.40;;
11396;SDS011;5754;43.726;7.416;2023-02-01T03:55:55;4.67;;;2.40;;
11396;SDS011;5754;43.726;7.416;2023-02-01T03:58:29;6.60;;;2.80;;
11396;SDS011;5754;43.726;7.416;2023-02-01T04:01:04;4.90;;;2.80;;
11396;SDS011;5754;43.726;7.416;2023-02-01T04:03:39;5.77;;;2.73;;
11396;SDS011;5754;43.726;7.416;2023-02-01T04:06:18;6.90;;;2.80;;
11396;SDS011;5754;43.726;7.416;2023-02-01T04:08:52;5.53;;;2.77;;
11396;SDS011;5754;43.726;7.416;2023-02-01T04:11:26;5.30;;;2.37;;
11396;SDS011;5754;43.726;7.416;2023-02-01T04:14:02;7.23;;;2.80;;
11396;SDS011;5754;43.726;7.416;2023-02-01T04:16:37;7.83;;;2.87;;
11396;SDS011;5754;43.726;7.416;2023-02-01T04:19:12;4.97;;;3.03;;
11396;SDS011;5754;43.726;7.416;2023-02-01T04:21:46;7.80;;;2.50;;
11396;SDS011;5754;43.726;7.416;2023-02-01T04:24:20;7.00;;;2.90;;
11396;SDS011;5754;43.726;7.416;2023-02-01T04:26:54;5.07;;;2.47;;
11396;SDS011;5754;43.726;7.416;2023-02-01T04:29:30;4.73;;;2.60;;
11396;SDS011;5754;43.726;7.416;2023-02-01T04:32:05;5.47;;;2.90;;
11396;SDS011;5754;43.726;7.416;2023-02-01T04:34:40;5.00;;;2.57;;
11396;SDS011;5754;43.726;7.416;2023-02-01T04:37:14;6.20;;;2.47;;
11396;SDS011;5754;43.726;7.416;2023-02-01T04:39:49;10.97;;;3.70;;
11396;SDS011;5754;43.726;7.416;2023-02-01T04:42:24;7.23;;;2.60;;
11396;SDS011;5754;43.726;7.416;2023-02-01T04:44:58;4.73;;;2.80;;
11396;SDS011;5754;43.726;7.416;2023-02-01T04:47:32;5.47;;;2.60;;
11396;SDS011;5754;43.726;7.416;2023-02-01T04:50:07;8.53;;;3.13;;
11396;SDS011;5754;43.726;7.416;2023-02-01T04:52:43;8.07;;;3.00;;
11396;SDS011;5754;43.726;7.416;2023-02-01T04:55:19;6.77;;;2.50;;
11396;SDS011;5754;43.726;7.416;2023-02-01T04:57:53;4.73;;;2.53;;
11396;SDS011;5754;43.726;7.416;2023-02-01T05:00:29;6.23;;;2.90;;
11396;SDS011;5754;43.726;7.416;2023-02-01T05:03:03;7.50;;;2.77;;
11396;SDS011;5754;43.726;7.416;2023-02-01T05:05:38;4.57;;;2.60;;
11396;SDS011;5754;43.726;7.416;2023-02-01T05:08:14;4.30;;;2.50;;
11396;SDS011;5754;43.726;7.416;2023-02-01T05:10:49;4.90;;;2.20;;
11396;SDS011;5754;43.726;7.416;2023-02-01T05:13:24;7.03;;;2.20;;
11396;SDS011;5754;43.726;7.416;2023-02-01T05:16:17;3.97;;;2.70;;
11396;SDS011;5754;43.726;7.416;2023-02-01T05:18:52;6.40;;;3.03;;
11396;SDS011;5754;43.726;7.416;2023-02-01T05:21:27;8.20;;;2.40;;
11396;SDS011;5754;43.726;7.416;2023-02-01T05:24:02;5.03;;;2.40;;
11396;SDS011;5754;43.726;7.416;2023-02-01T05:26:42;5.93;;;2.70;;
11396;SDS011;5754;43.726;7.416;2023-02-01T05:29:17;4.93;;;2.53;;
11396;SDS011;5754;43.726;7.416;2023-02-01T05:31:51;4.90;;;2.80;;
11396;SDS011;5754;43.726;7.416;2023-02-01T05:34:26;8.40;;;2.73;;
11396;SDS011;5754;43.726;7.416;2023-02-01T05:37:00;6.20;;;2.60;;
11396;SDS011;5754;43.726;7.416;2023-02-01T05:39:35;5.20;;;2.40;;
11396;SDS011;5754;43.726;7.416;2023-02-01T05:42:09;5.00;;;2.50;;
11396;SDS011;5754;43.726;7.416;2023-02-01T05:44:44;2.40;;;2.20;;
11396;SDS011;5754;43.726;7.416;2023-02-01T05:47:19;4.47;;;2.80;;
11396;SDS011;5754;43.726;7.416;2023-02-01T05:49:53;4.83;;;2.40;;
11396;SDS011;5754;43.726;7.416;2023-02-01T05:52:28;6.43;;;2.67;;
11396;SDS011;5754;43.726;7.416;2023-02-01T05:55:02;6.00;;;2.73;;
11396;SDS011;5754;43.726;7.416;2023-02-01T06:00:19;6.97;;;2.60;;
11396;SDS011;5754;43.726;7.416;2023-02-01T06:02:55;7.50;;;2.43;;
11396;SDS011;5754;43.726;7.416;2023-02-01T06:05:32;6.53;;;2.77;;
11396;SDS011;5754;43.726;7.416;2023-02-01T06:08:06;5.13;;;2.80;;
11396;SDS011;5754;43.726;7.416;2023-02-01T06:10:41;5.50;;;2.53;;
11396;SDS011;5754;43.726;7.416;2023-02-01T06:13:15;5.50;;;2.53;;
11396;SDS011;5754;43.726;7.416;2023-02-01T06:15:49;6.83;;;2.33;;
11396;SDS011;5754;43.726;7.416;2023-02-01T06:18:25;4.07;;;2.90;;
11396;SDS011;5754;43.726;7.416;2023-02-01T06:20:59;6.63;;;3.10;;
11396;SDS011;5754;43.726;7.416;2023-02-01T06:23:33;6.13;;;2.60;;
11396;SDS011;5754;43.726;7.416;2023-02-01T06:26:08;4.93;;;2.33;;
11396;SDS011;5754;43.726;7.416;2023-02-01T06:28:43;4.43;;;2.30;;
11396;SDS011;5754;43.726;7.416;2023-02-01T06:31:18;8.93;;;3.07;;
11396;SDS011;5754;43.726;7.416;2023-02-01T06:33:52;6.57;;;2.90;;
11396;SDS011;5754;43.726;7.416;2023-02-01T06:36:26;6.77;;;2.97;;
11396;SDS011;5754;43.726;7.416;2023-02-01T06:39:01;9.43;;;2.40;;
11396;SDS011;5754;43.726;7.416;2023-02-01T06:41:35;4.60;;;2.73;;
11396;SDS011;5754;43.726;7.416;2023-02-01T06:44:09;3.90;;;2.60;;
11396;SDS011;5754;43.726;7.416;2023-02-01T06:46:44;4.43;;;2.83;;
11396;SDS011;5754;43.726;7.416;2023-02-01T06:49:18;6.50;;;3.17;;
11396;SDS011;5754;43.726;7.416;2023-02-01T06:51:53;8.47;;;3.10;;
11396;SDS011;5754;43.726;7.416;2023-02-01T06:54:28;4.60;;;2.97;;
11396;SDS011;5754;43.726;7.416;2023-02-01T06:57:05;5.70;;;2.80;;
11396;SDS011;5754;43.726;7.416;2023-02-01T06:59:39;7.60;;;3.40;;
11396;SDS011;5754;43.726;7.416;2023-02-01T07:02:14;7.23;;;3.00;;
11396;SDS011;5754;43.726;7.416;2023-02-01T07:04:48;5.20;;;3.13;;
11396;SDS011;5754;43.726;7.416;2023-02-01T07:07:23;7.30;;;3.53;;
11396;SDS011;5754;43.726;7.416;2023-02-01T07:09:57;8.67;;;2.90;;
11396;SDS011;5754;43.726;7.416;2023-02-01T07:12:32;6.10;;;3.57;;
11396;SDS011;5754;43.726;7.416;2023-02-01T07:15:06;5.93;;;3.30;;
11396;SDS011;5754;43.726;7.416;2023-02-01T07:17:41;5.37;;;3.73;;
11396;SDS011;5754;43.726;7.416;2023-02-01T07:20:17;8.67;;;3.50;;
11396;SDS011;5754;43.726;7.416;2023-02-01T07:22:56;5.97;;;3.83;;
11396;SDS011;5754;43.726;7.416;2023-02-01T07:25:31;9.03;;;3.70;;
11396;SDS011;5754;43.726;7.416;2023-02-01T07:28:05;9.07;;;3.97;;
11396;SDS011;5754;43.726;7.416;2023-02-01T07:30:39;11.83;;;4.17;;
11396;SDS011;5754;43.726;7.416;2023-02-01T07:33:15;12.27;;;4.40;;
11396;SDS011;5754;43.726;7.416;2023-02-01T07:35:50;8.80;;;4.67;;
11396;SDS011;5754;43.726;7.416;2023-02-01T07:38:24;8.77;;;4.50;;
11396;SDS011;5754;43.726;7.416;2023-02-01T07:40:59;10.87;;;3.80;;
11396;SDS011;5754;43.726;7.416;2023-02-01T07:43:34;13.97;;;8.83;;
11396;SDS011;5754;43.726;7.416;2023-02-01T07:46:10;9.80;;;5.47;;
11396;SDS011;5754;43.726;7.416;2023-02-01T07:48:44;13.60;;;5.53;;
11396;SDS011;5754;43.726;7.416;2023-02-01T07:51:19;8.03;;;4.00;;
11396;SDS011;5754;43.726;7.416;2023-02-01T07:53:53;7.50;;;4.30;;
11396;SDS011;5754;43.726;7.416;2023-02-01T07:56:29;9.40;;;4.00;;
11396;SDS011;5754;43.726;7.416;2023-02-01T07:59:04;6.57;;;3.53;;
11396;SDS011;5754;43.726;7.416;2023-02-01T08:01:40;9.90;;;3.63;;
11396;SDS011;5754;43.726;7.416;2023-02-01T08:04:14;9.03;;;3.57;;
11396;SDS011;5754;43.726;7.416;2023-02-01T08:06:49;6.47;;;3.30;;
11396;SDS011;5754;43.726;7.416;2023-02-01T08:09:23;9.03;;;3.83;;
11396;SDS011;5754;43.726;7.416;2023-02-01T08:11:58;5.77;;;3.27;;
11396;SDS011;5754;43.726;7.416;2023-02-01T08:14:35;6.47;;;3.17;;
11396;SDS011;5754;43.726;7.416;2023-02-01T08:17:10;8.20;;;3.60;;
11396;SDS011;5754;43.726;7.416;2023-02-01T08:19:44;10.07;;;3.77;;
11396;SDS011;5754;43.726;7.416;2023-02-01T08:22:18;9.70;;;3.77;;
11396;SDS011;5754;43.726;7.416;2023-02-01T08:24:53;10.33;;;4.03;;
11396;SDS011;5754;43.726;7.416;2023-02-01T08:27:34;11.33;;;4.90;;
11396;SDS011;5754;43.726;7.416;2023-02-01T08:30:09;12.87;;;5.23;;
11396;SDS011;5754;43.726;7.416;2023-02-01T08:32:45;10.70;;;4.53;;
11396;SDS011;5754;43.726;7.416;2023-02-01T08:35:20;15.00;;;4.63;;
11396;SDS011;5754;43.726;7.416;2023-02-01T08:37:59;9.77;;;3.77;;
11396;SDS011;5754;43.726;7.416;2023-02-01T08:40:34;8.83;;;3.90;;
11396;SDS011;5754;43.726;7.416;2023-02-01T08:43:08;7.40;;;3.40;;
11396;SDS011;5754;43.726;7.416;2023-02-01T08:45:42;11.67;;;3.40;;
11396;SDS011;5754;43.726;7.416;2023-02-01T08:48:18;7.53;;;3.47;;
11396;SDS011;5754;43.726;7.416;2023-02-01T08:50:52;9.33;;;3.30;;
11396;SDS011;5754;43.726;7.416;2023-02-01T08:53:27;10.67;;;3.20;;
11396;SDS011;5754;43.726;7.416;2023-02-01T08:56:01;13.00;;;3.57;;
11396;SDS011;5754;43.726;7.416;2023-02-01T08:58:36;22.27;;;4.30;;
11396;SDS011;5754;43.726;7.416;2023-02-01T09:01:12;16.23;;;3.40;;
11396;SDS011;5754;43.726;7.416;2023-02-01T09:03:47;10.73;;;3.80;;
11396;SDS011;5754;43.726;7.416;2023-02-01T09:06:22;8.57;;;3.40;;
11396;SDS011;5754;43.726;7.416;2023-02-01T09:08:57;7.90;;;2.73;;
11396;SDS011;5754;43.726;7.416;2023-02-01T09:11:32;5.73;;;2.63;;
11396;SDS011;5754;43.726;7.416;2023-02-01T09:22:14;4.87;;;2.60;;
11396;SDS011;5754;43.726;7.416;2023-02-01T09:27:30;4.93;;;2.58;;
11396;SDS011;5754;43.726;7.416;2023-02-01T09:30:05;6.53;;;2.72;;
11396;SDS011;5754;43.726;7.416;2023-02-01T09:32:40;6.28;;;2.85;;
11396;SDS011;5754;43.726;7.416;2023-02-01T09:35:14;6.15;;;2.97;;
11396;SDS011;5754;43.726;7.416;2023-02-01T09:37:48;4.07;;;2.30;;
11396;SDS011;5754;43.726;7.416;2023-02-01T09:40:23;8.57;;;3.40;;
11396;SDS011;5754;43.726;7.416;2023-02-01T09:43:06;3.95;;;2.30;;
11396;SDS011;5754;43.726;7.416;2023-02-01T09:59:18;6.70;;;2.60;;
11396;SDS011;5754;43.726;7.416;2023-02-01T10:01:55;7.65;;;2.95;;
11396;SDS011;5754;43.726;7.416;2023-02-01T10:04:29;5.37;;;2.45;;
11396;SDS011;5754;43.726;7.416;2023-02-01T10:07:23;7.93;;;2.50;;
11396;SDS011;5754;43.726;7.416;2023-02-01T10:10:17;5.55;;;2.42;;
11396;SDS011;5754;43.726;7.416;2023-02-01T10:13:04;6.25;;;2.60;;
11396;SDS011;5754;43.726;7.416;2023-02-01T10:15:53;6.28;;;2.92;;
11396;SDS011;5754;43.726;7.416;2023-02-01T10:18:51;10.23;;;2.85;;
11396;SDS011;5754;43.726;7.416;2023-02-01T10:24:42;5.18;;;2.30;;
11396;SDS011;5754;43.726;7.416;2023-02-01T10:27:22;4.78;;;2.33;;
11396;SDS011;5754;43.726;7.416;2023-02-01T10:29:59;7.50;;;2.58;;
11396;SDS011;5754;43.726;7.416;2023-02-01T10:32:34;7.82;;;3.03;;
11396;SDS011;5754;43.726;7.416;2023-02-01T10:35:17;6.12;;;2.80;;
11396;SDS011;5754;43.726;7.416;2023-02-01T10:37:51;8.45;;;3.20;;
11396;SDS011;5754;43.726;7.416;2023-02-01T10:40:25;6.05;;;2.97;;
11396;SDS011;5754;43.726;7.416;2023-02-01T10:43:01;6.68;;;2.92;;
11396;SDS011;5754;43.726;7.416;2023-02-01T10:45:35;9.18;;;3.42;;
11396;SDS011;5754;43.726;7.416;2023-02-01T10:48:12;7.18;;;2.60;;
11396;SDS011;5754;43.726;7.416;2023-02-01T10:50:54;5.83;;;2.97;;
11396;SDS011;5754;43.726;7.416;2023-02-01T10:53:39;5.70;;;2.67;;
11396;SDS011;5754;43.726;7.416;2023-02-01T10:56:21;6.13;;;2.60;;
11396;SDS011;5754;43.726;7.416;2023-02-01T10:59:00;6.80;;;2.83;;
11396;SDS011;5754;43.726;7.416;2023-02-01T11:01:42;8.10;;;2.70;;
11396;SDS011;5754;43.726;7.416;2023-02-01T11:04:19;8.50;;;2.80;;
11396;SDS011;5754;43.726;7.416;2023-02-01T11:07:05;8.53;;;2.53;;
11396;SDS011;5754;43.726;7.416;2023-02-01T11:09:41;6.87;;;2.70;;
11396;SDS011;5754;43.726;7.416;2023-02-01T11:12:32;7.87;;;3.03;;
11396;SDS011;5754;43.726;7.416;2023-02-01T11:15:22;5.97;;;2.80;;
11396;SDS011;5754;43.726;7.416;2023-02-01T11:17:58;7.63;;;2.90;;
11396;SDS011;5754;43.726;7.416;2023-02-01T11:20:41;6.50;;;3.20;;
11396;SDS011;5754;43.726;7.416;2023-02-01T11:23:17;8.07;;;2.70;;
11396;SDS011;5754;43.726;7.416;2023-02-01T11:25:56;7.73;;;2.87;;
11396;SDS011;5754;43.726;7.416;2023-02-01T11:28:31;5.23;;;2.80;;
11396;SDS011;5754;43.726;7.416;2023-02-01T11:31:09;9.40;;;2.87;;
11396;SDS011;5754;43.726;7.416;2023-02-01T11:33:49;6.13;;;2.70;;
11396;SDS011;5754;43.726;7.416;2023-02-01T11:36:27;6.27;;;2.40;;
11396;SDS011;5754;43.726;7.416;2023-02-01T11:39:07;9.93;;;2.83;;
11396;SDS011;5754;43.726;7.416;2023-02-01T11:41:44;7.37;;;2.80;;
11396;SDS011;5754;43.726;7.416;2023-02-01T11:44:36;10.70;;;2.67;;
11396;SDS011;5754;43.726;7.416;2023-02-01T11:51:40;6.10;;;3.00;;
11396;SDS011;5754;43.726;7.416;2023-02-01T11:54:33;6.53;;;3.00;;
11396;SDS011;5754;43.726;7.416;2023-02-01T12:06:44;8.07;;;2.73;;
11396;SDS011;5754;43.726;7.416;2023-02-01T12:09:24;8.47;;;2.93;;
11396;SDS011;5754;43.726;7.416;2023-02-01T12:12:22;11.40;;;3.00;;
11396;SDS011;5754;43.726;7.416;2023-02-01T12:20:56;5.47;;;2.97;;
11396;SDS011;5754;43.726;7.416;2023-02-01T12:33:18;14.37;;;3.57;;
11396;SDS011;5754;43.726;7.416;2023-02-01T12:36:02;7.73;;;3.30;;
11396;SDS011;5754;43.726;7.416;2023-02-01T12:39:46;10.20;;;3.33;;
11396;SDS011;5754;43.726;7.416;2023-02-01T12:42:36;11.10;;;2.93;;
11396;SDS011;5754;43.726;7.416;2023-02-01T12:45:15;8.73;;;2.67;;
11396;SDS011;5754;43.726;7.416;2023-02-01T12:47:52;12.80;;;3.20;;
11396;SDS011;5754;43.726;7.416;2023-02-01T12:50:33;7.60;;;2.93;;
11396;SDS011;5754;43.726;7.416;2023-02-01T12:53:21;15.17;;;3.17;;
11396;SDS011;5754;43.726;7.416;2023-02-01T12:55:59;7.13;;;2.93;;
11396;SDS011;5754;43.726;7.416;2023-02-01T12:58:41;10.33;;;2.70;;
11396;SDS011;5754;43.726;7.416;2023-02-01T13:01:21;11.97;;;3.33;;
11396;SDS011;5754;43.726;7.416;2023-02-01T13:04:42;10.40;;;3.17;;
11396;SDS011;5754;43.726;7.416;2023-02-01T13:07:19;9.43;;;2.53;;
11396;SDS011;5754;43.726;7.416;2023-02-01T13:10:11;9.53;;;2.83;;
11396;SDS011;5754;43.726;7.416;2023-02-01T13:12:51;7.37;;;3.13;;
11396;SDS011;5754;43.726;7.416;2023-02-01T13:15:28;12.03;;;3.23;;
11396;SDS011;5754;43.726;7.416;2023-02-01T13:18:04;8.37;;;2.77;;
11396;SDS011;5754;43.726;7.416;2023-02-01T13:21:00;8.17;;;2.93;;
11396;SDS011;5754;43.726;7.416;2023-02-01T13:23:38;11.47;;;2.77;;
11396;SDS011;5754;43.726;7.416;2023-02-01T13:26:13;11.10;;;3.30;;
11396;SDS011;5754;43.726;7.416;2023-02-01T13:28:58;10.23;;;2.80;;
11396;SDS011;5754;43.726;7.416;2023-02-01T13:31:48;9.87;;;2.83;;
11396;SDS011;5754;43.726;7.416;2023-02-01T13:39:49;7.97;;;2.57;;
11396;SDS011;5754;43.726;7.416;2023-02-01T13:42:34;9.20;;;2.93;;
11396;SDS011;5754;43.726;7.416;2023-02-01T13:45:23;7.37;;;2.90;;
11396;SDS011;5754;43.726;7.416;2023-02-01T13:47:59;10.50;;;2.93;;
11396;SDS011;5754;43.726;7.416;2023-02-01T13:50:38;8.97;;;2.90;;
11396;SDS011;5754;43.726;7.416;2023-02-01T13:53:17;10.63;;;2.63;;
11396;SDS011;5754;43.726;7.416;2023-02-01T13:55:58;9.03;;;3.20;;
11396;SDS011;5754;43.726;7.416;2023-02-01T13:58:34;10.13;;;2.80;;
11396;SDS011;5754;43.726;7.416;2023-02-01T14:04:46;11.00;;;2.90;;
11396;SDS011;5754;43.726;7.416;2023-02-01T14:07:21;11.00;;;3.50;;
11396;SDS011;5754;43.726;7.416;2023-02-01T14:09:56;11.13;;;3.27;;
11396;SDS011;5754;43.726;7.416;2023-02-01T14:12:46;8.40;;;3.77;;
11396;SDS011;5754;43.726;7.416;2023-02-01T14:15:25;11.97;;;3.53;;
11396;SDS011;5754;43.726;7.416;2023-02-01T14:18:00;11.97;;;3.30;;
11396;SDS011;5754;43.726;7.416;2023-02-01T14:20:46;12.37;;;3.40;;
11396;SDS011;5754;43.726;7.416;2023-02-01T14:23:23;14.80;;;3.13;;
11396;SDS011;5754;43.726;7.416;2023-02-01T14:26:02;11.53;;;3.07;;
11396;SDS011;5754;43.726;7.416;2023-02-01T14:28:44;8.90;;;2.80;;
11396;SDS011;5754;43.726;7.416;2023-02-01T14:31:34;12.57;;;3.47;;
11396;SDS011;5754;43.726;7.416;2023-02-01T14:34:16;8.70;;;3.40;;
11396;SDS011;5754;43.726;7.416;2023-02-01T14:36:54;10.87;;;3.37;;
11396;SDS011;5754;43.726;7.416;2023-02-01T14:48:41;12.27;;;3.17;;
11396;SDS011;5754;43.726;7.416;2023-02-01T14:51:18;9.60;;;3.43;;
11396;SDS011;5754;43.726;7.416;2023-02-01T14:53:54;8.87;;;2.90;;
11396;SDS011;5754;43.726;7.416;2023-02-01T14:56:30;9.43;;;3.70;;
11396;SDS011;5754;43.726;7.416;2023-02-01T14:59:13;15.70;;;2.97;;
11396;SDS011;5754;43.726;7.416;2023-02-01T15:01:50;15.23;;;4.10;;
11396;SDS011;5754;43.726;7.416;2023-02-01T15:04:26;14.90;;;4.07;;
11396;SDS011;5754;43.726;7.416;2023-02-01T15:07:05;13.90;;;3.80;;
11396;SDS011;5754;43.726;7.416;2023-02-01T15:09:44;8.07;;;2.70;;
11396;SDS011;5754;43.726;7.416;2023-02-01T15:12:24;13.13;;;2.80;;
11396;SDS011;5754;43.726;7.416;2023-02-01T15:15:11;13.43;;;3.20;;
11396;SDS011;5754;43.726;7.416;2023-02-01T15:17:50;8.30;;;2.93;;
11396;SDS011;5754;43.726;7.416;2023-02-01T15:20:25;13.40;;;3.03;;
11396;SDS011;5754;43.726;7.416;2023-02-01T15:23:01;10.10;;;3.43;;
11396;SDS011;5754;43.726;7.416;2023-02-01T15:25:38;10.33;;;3.43;;
11396;SDS011;5754;43.726;7.416;2023-02-01T15:28:14;10.10;;;3.17;;
11396;SDS011;5754;43.726;7.416;2023-02-01T15:30:59;12.37;;;3.00;;
11396;SDS011;5754;43.726;7.416;2023-02-01T15:33:34;5.70;;;2.40;;
11396;SDS011;5754;43.726;7.416;2023-02-01T15:36:10;8.53;;;2.80;;
11396;SDS011;5754;43.726;7.416;2023-02-01T15:38:48;10.30;;;2.77;;
11396;SDS011;5754;43.726;7.416;2023-02-01T15:41:55;7.30;;;3.07;;
11396;SDS011;5754;43.726;7.416;2023-02-01T15:44:32;9.60;;;3.20;;
11396;SDS011;5754;43.726;7.416;2023-02-01T15:47:12;6.50;;;2.93;;
11396;SDS011;5754;43.726;7.416;2023-02-01T15:49:50;8.17;;;3.00;;
11396;SDS011;5754;43.726;7.416;2023-02-01T15:52:30;10.23;;;3.07;;
11396;SDS011;5754;43.726;7.416;2023-02-01T15:55:08;8.90;;;3.30;;
11396;SDS011;5754;43.726;7.416;2023-02-01T15:57:51;10.63;;;2.57;;
11396;SDS011;5754;43.726;7.416;2023-02-01T16:00:34;9.50;;;2.97;;
11396;SDS011;5754;43.726;7.416;2023-02-01T16:12:46;10.43;;;2.87;;
11396;SDS011;5754;43.726;7.416;2023-02-01T16:15:21;7.20;;;2.80;;
11396;SDS011;5754;43.726;7.416;2023-02-01T16:17:56;12.60;;;3.20;;
11396;SDS011;5754;43.726;7.416;2023-02-01T16:20:31;10.53;;;2.80;;
11396;SDS011;5754;43.726;7.416;2023-02-01T16:23:06;10.60;;;3.33;;
11396;SDS011;5754;43.726;7.416;2023-02-01T16:25:41;7.57;;;3.03;;
11396;SDS011;5754;43.726;7.416;2023-02-01T16:28:16;12.60;;;3.00;;
11396;SDS011;5754;43.726;7.416;2023-02-01T16:30:51;10.23;;;2.93;;
11396;SDS011;5754;43.726;7.416;2023-02-01T16:33:26;8.97;;;2.67;;
11396;SDS011;5754;43.726;7.416;2023-02-01T16:36:00;10.73;;;3.07;;
11396;SDS011;5754;43.726;7.416;2023-02-01T16:38:37;9.63;;;3.07;;
11396;SDS011;5754;43.726;7.416;2023-02-01T16:41:12;13.10;;;2.97;;
11396;SDS011;5754;43.726;7.416;2023-02-01T16:43:51;7.83;;;3.20;;
11396;SDS011;5754;43.726;7.416;2023-02-01T16:46:26;11.00;;;3.60;;
11396;SDS011;5754;43.726;7.416;2023-02-01T16:49:03;7.73;;;2.93;;
11396;SDS011;5754;43.726;7.416;2023-02-01T16:51:38;8.03;;;3.03;;
11396;SDS011;5754;43.726;7.416;2023-02-01T16:54:14;10.80;;;3.10;;
11396;SDS011;5754;43.726;7.416;2023-02-01T16:56:49;11.73;;;2.90;;
11396;SDS011;5754;43.726;7.416;2023-02-01T16:59:24;12.10;;;3.40;;
11396;SDS011;5754;43.726;7.416;2023-02-01T17:01:58;11.40;;;3.40;;
11396;SDS011;5754;43.726;7.416;2023-02-01T17:04:33;10.73;;;3.33;;
11396;SDS011;5754;43.726;7.416;2023-02-01T17:07:15;10.87;;;2.73;;
11396;SDS011;5754;43.726;7.416;2023-02-01T17:09:51;13.13;;;3.63;;
11396;SDS011;5754;43.726;7.416;2023-02-01T17:12:26;6.83;;;2.90;;
11396;SDS011;5754;43.726;7.416;2023-02-01T17:15:03;9.57;;;3.20;;
11396;SDS011;5754;43.726;7.416;2023-02-01T17:17:38;15.50;;;4.00;;
11396;SDS011;5754;43.726;7.416;2023-02-01T17:20:18;8.17;;;2.90;;
11396;SDS011;5754;43.726;7.416;2023-02-01T17:22:54;11.80;;;2.97;;
11396;SDS011;5754;43.726;7.416;2023-02-01T17:25:28;9.13;;;3.03;;
11396;SDS011;5754;43.726;7.416;2023-02-01T17:28:03;12.07;;;3.10;;
11396;SDS011;5754;43.726;7.416;2023-02-01T17:30:38;11.57;;;3.60;;
11396;SDS011;5754;43.726;7.416;2023-02-01T17:33:25;9.67;;;3.43;;
11396;SDS011;5754;43.726;7.416;2023-02-01T17:36:01;8.73;;;2.77;;
11396;SDS011;5754;43.726;7.416;2023-02-01T17:38:37;12.20;;;3.60;;
11396;SDS011;5754;43.726;7.416;2023-02-01T17:41:13;10.37;;;3.23;;
11396;SDS011;5754;43.726;7.416;2023-02-01T17:43:47;11.20;;;3.00;;
11396;SDS011;5754;43.726;7.416;2023-02-01T17:46:23;14.53;;;4.00;;
11396;SDS011;5754;43.726;7.416;2023-02-01T17:49:01;12.23;;;3.57;;